Weather observations for the past three days for
Charlottesville-Albemarle Airport
Metric (Imperial)
Date Time (edt) Wind (kph) Vis. (km) Weather Sky Cond. Temperature (ºC) Relative Humidity Wind Chill (°C) Heat Index (°C) Pressure Precipitation (cm)
Air Dwpt 6 hour altimeter (cm) sea level (mb) 1 hr 3 hr 6 hr
Max. Min.
04 09:53 E 6 16.09 Fair CLR 30 23.3 67% 34 76.15 1014.1
04 08:53 Calm 16.09 Fair CLR 27.8 22.8 74% 31 76.15 1014.2
04 07:53 SW 7 16.09 Fair CLR 24.4 22.8 25 22.8 91% 24 76.12 1014.0
04 06:53 SW 9 16.09 Fair CLR 23.3 22.2 94% 76.12 1013.9
04 05:53 S 7 16.09 Fair CLR 23.9 22.2 90% 23 76.1 1013.7
04 04:53 SW 6 16.09 Fair CLR 22.8 22.2 96% 76.12 1013.9
04 03:53 Calm 16.09 Fair CLR 23.3 22.2 94% 76.1 1013.6
04 02:53 Vrbl 6 16.09 Fair CLR 24.4 22.8 91% 24 76.07 1013.1
04 01:53 SW 7 16.09 Fair CLR 24.4 22.8 26.7 23.9 91% 24 76.07 1013.3
04 00:53 N 9 16.09 Mostly Cloudy SCT085 BKN110 24.4 23.3 94% 24 76.25 1015.6
03 23:53 Calm 16.09 Fair CLR 24.4 23.3 94% 24 76.2 1015.1
03 22:53 SW 6 16.09 Fair CLR 25 23.3 90% 26 76.17 1014.7
03 21:53 W 7 16.09 Fair CLR 25.6 23.3 87% 27 76.17 1014.9
03 20:53 SW 7 16.09 Fair CLR 26.7 22.8 79% 29 76.17 1014.8
03 19:53 Calm 16.09 Partly Cloudy SCT070 26.7 23.9 33.3 26.7 85% 29 76.17 1014.6
03 18:53 Calm 16.09 A Few Clouds FEW080 28.3 23.3 74% 32 76.12 1013.9
03 17:53 W 6 16.09 Fair CLR 30 22.8 65% 34 76.1 1013.8
03 16:53 N 7 16.09 Fair CLR 30.6 25 72% 37 76.15 1014.5
03 15:53 Calm 16.09 Fair CLR 32.8 23.3 57% 38 76.17 1014.7
03 14:53 E 9 16.09 Fair CLR 32.2 23.9 62% 38 76.25 1015.6
03 13:53 NE 7 16.09 Fair CLR 32.2 23.3 32.2 22.8 59% 37 76.28 1016.2
03 12:53 Vrbl 6 16.09 Fair CLR 31.1 23.3 63% 36 76.35 1017.0
03 11:53 Vrbl 7 16.09 Fair CLR 28.3 23.3 74% 32 76.38 1017.5
03 10:53 E 15 16.09 Fair CLR 26.7 22.8 79% 29 76.4 1017.6
03 09:53 NE 15 16.09 Fair CLR 26.1 22.8 82% 28 76.38 1017.3
03 08:53 Calm 16.09 Fair CLR 23.9 22.2 90% 23 76.35 1017.2
03 07:53 Calm 16.09 Fair CLR 22.8 21.7 22.8 20.6 94% 76.35 1017.3
03 06:53 Calm 9.66 Fog/Mist CLR 21.1 20.6 97% 76.3 1016.6
03 05:53 Calm 16.09 Fair CLR 21.1 21.1 100% 76.3 1016.5
03 04:53 Calm 14.48 Fair CLR 21.1 21.1 100% 76.28 1016.3
03 03:53 Calm 16.09 Fair CLR 21.7 21.1 96% 76.28 1016.0
03 02:53 Calm 16.09 Fair CLR 21.7 21.1 96% 76.28 1016.1
03 01:53 S 6 16.09 A Few Clouds FEW070 22.2 21.1 25 21.7 94% 76.3 1016.3
03 00:53 S 6 16.09 Fair CLR 22.2 21.1 94% 76.35 1016.9
02 23:53 Calm 16.09 Fair CLR 22.2 21.7 97% 76.33 1016.9
02 22:53 Calm 16.09 Fair CLR 22.8 21.7 94% 76.35 1017.1
02 21:53 Calm 16.09 Fair CLR 23.3 21.7 91% 76.4 1017.7
02 20:53 Calm 16.09 Mostly Cloudy BKN025 23.9 21.7 88% 24 76.38 1017.6
02 19:53 Calm 16.09 Fair CLR 24.4 21.1 34.4 23.9 82% 25 76.35 1017.1
02 18:53 N 7 16.09 Fair CLR 25 21.1 79% 26 76.38 1017.7
02 17:53 NW 7 16.09 Fair CLR 26.1 21.1 74% 28 76.4 1018.0
02 16:53 NE 33 G 63 16.09 Thunderstorm Light Rain and Breezy FEW050 BKN070 BKN080 27.2 20 65% 29 76.38 1017.3
02 15:53 E 15 16.09 Fair CLR 34.4 21.7 48% 38 76.3 1016.3
02 14:53 Vrbl 6 16.09 Fair CLR 33.9 22.2 50% 38 76.3 1016.5
02 13:53 E 11 16.09 Fair CLR 33.3 22.2 33.9 23.9 52% 38 76.38 1017.2
02 12:53 NE 7 16.09 Fair CLR 32.8 22.2 54% 37 76.4 1017.6
02 11:53 Vrbl 6 16.09 Fair CLR 31.7 22.8 59% 36 76.43 1017.9
02 10:53 Vrbl 6 16.09 Fair CLR 30 23.3 67% 34 76.43 1018.1
02 09:53 Calm 16.09 Fair CLR 28.3 22.2 70% 31 76.43 1018.0
02 08:53 Calm 12.87 Fair CLR 26.1 22.2 79% 28 76.4 1017.9
02 07:53 Calm 16.09 Fair CLR 23.9 22.2 24.4 21.7 90% 23 76.4 1017.9
02 06:53 Calm 14.48 Fair CLR 21.7 21.7 100% 76.4 1017.6
02 05:53 NE 7 16.09 Partly Cloudy SCT100 22.2 21.7 97% 76.38 1017.3
02 04:53 Calm 16.09 Fair CLR 22.8 21.7 94% 76.35 1017.0
02 03:53 Calm 16.09 Fair CLR 23.3 22.2 94% 76.35 1016.9
02 02:53 NW 7 16.09 Fair CLR 23.3 21.7 91% 76.33 1016.8
02 01:53 Calm 16.09 Fair CLR 22.8 22.2 28.3 22.2 96% 76.38 1017.2
02 00:53 Calm 16.09 Fair CLR 24.4 22.2 88% 25 76.35 1016.9
01 23:53 E 6 16.09 Fair CLR 25 22.8 88% 26 76.3 1016.3
01 22:53 W 6 16.09 Fair CLR 25 23.9 94% 26 76.28 1016.1
01 21:53 Calm 16.09 Fair CLR 26.1 24.4 90% 28 76.28 1016.0
01 20:53 Calm 16.09 Fair CLR 27.2 25 88% 31 76.2 1015.2
01 19:53 Calm 16.09 Fair CLR 28.3 24.4 33.9 28.3 79% 33 76.17 1014.7
01 18:53 Calm 16.09 Fair CLR 29.4 24.4 75% 35 76.2 1014.9
01 17:53 SW 7 16.09 Fair CLR 32.2 22.8 58% 37 76.17 1014.9
01 16:53 S 7 16.09 Fair CLR 33.3 22.2 52% 38 76.2 1015.1
01 15:53 S 9 16.09 Fair CLR 33.9 22.8 52% 39 76.23 1015.4
01 14:53 NW 6 16.09 Fair CLR 33.3 21.7 51% 37 76.3 1016.3
01 13:53 N 6 16.09 Fair CLR 32.8 21.7 32.8 21.7 52% 36 76.3 1016.3
01 12:53 Vrbl 6 16.09 Fair CLR 32.2 22.8 58% 37 76.3 1016.5
01 11:53 Vrbl 6 16.09 Fair CLR 30.6 23.9 67% 36 76.38 1017.3
01 10:53 SW 6 16.09 Fair CLR 27.2 22.2 74% 30 76.4 1017.9
Date Time (edt) Wind (kph) Vis. (km) Weather Sky Cond. Air Dwpt Max. Min. Relative Humidity Wind Chill (°C) Heat Index (°C) altimeter (cm) sea level (mb) 1 hr 3 hr 6 hr
6 hour
Temperature (ºC) Pressure Precipitation (cm)